Time;durP1;ratioP1;P1;durP2;ratioP2;P2;SDS_P1;SDS_P2;PMS_P1;PMS_P2;Temp;Humidity;BMP_temperature;BMP_pressure;BME280_temperature;BME280_humidity;BME280_pressure;Samples;Min_cycle;Max_cycle;Signal;HPM_P1;HPM_P2
2023/08/25 00:00:24;;;;;;;10.48;3.58;;;;;;;18.59;100.00;100661.38;4981429;28;20030;-65
2023/08/25 00:02:50;;;;;;;12.32;3.22;;;;;;;18.60;100.00;100665.59;4995778;28;20180;-65
2023/08/25 00:05:15;;;;;;;11.55;3.35;;;;;;;18.57;100.00;100670.47;5001507;28;20073;-65
2023/08/25 00:07:41;;;;;;;16.25;3.30;;;;;;;18.55;100.00;100668.03;4998117;28;20046;-66
2023/08/25 00:10:07;;;;;;;16.80;3.53;;;;;;;18.59;100.00;100656.13;4985487;28;20041;-65
2023/08/25 00:12:32;;;;;;;14.25;3.33;;;;;;;18.58;100.00;100667.63;4981484;28;20072;-66
2023/08/25 00:14:58;;;;;;;18.77;3.55;;;;;;;18.59;100.00;100653.50;4982793;28;20042;-65
2023/08/25 00:17:23;;;;;;;23.45;4.50;;;;;;;18.48;100.00;100647.09;4985989;28;20034;-65
2023/08/25 00:19:49;;;;;;;16.70;4.15;;;;;;;18.56;100.00;100640.00;4999696;28;20050;-66
2023/08/25 00:22:14;;;;;;;16.23;4.10;;;;;;;18.44;100.00;100634.59;4996792;28;20043;-65
2023/08/25 00:24:40;;;;;;;16.10;3.88;;;;;;;18.48;100.00;100639.22;4970705;28;20077;-65
2023/08/25 00:27:05;;;;;;;12.95;3.38;;;;;;;18.41;100.00;100633.22;4999264;28;20049;-65
2023/08/25 00:29:31;;;;;;;11.15;3.20;;;;;;;18.39;100.00;100640.50;5002661;28;20038;-65
2023/08/25 00:31:56;;;;;;;9.50;2.75;;;;;;;18.39;100.00;100639.69;4981053;28;20030;-65
2023/08/25 00:34:21;;;;;;;11.05;4.13;;;;;;;18.39;100.00;100639.69;4985286;28;20025;-65
2023/08/25 00:36:47;;;;;;;14.32;3.08;;;;;;;18.40;100.00;100633.41;4982428;28;20061;-66
2023/08/25 00:39:12;;;;;;;11.85;2.80;;;;;;;18.39;100.00;100632.63;4977954;28;20699;-65
2023/08/25 00:41:38;;;;;;;13.20;2.13;;;;;;;18.37;100.00;100637.28;4982134;28;20038;-65
2023/08/25 00:44:03;;;;;;;12.20;2.50;;;;;;;18.40;100.00;100644.75;4982234;28;20639;-65
2023/08/25 00:46:30;;;;;;;17.20;3.17;;;;;;;18.41;100.00;100630.59;4985212;28;20072;-65
2023/08/25 00:48:56;;;;;;;24.58;2.75;;;;;;;18.40;100.00;100634.25;5001931;28;20121;-65
2023/08/25 00:51:23;;;;;;;8.25;2.90;;;;;;;18.39;100.00;100629.19;4984322;28;20038;-65
2023/08/25 00:53:49;;;;;;;10.65;2.28;;;;;;;18.37;100.00;100633.84;4980961;28;20034;-65
2023/08/25 00:56:17;;;;;;;14.25;3.30;;;;;;;18.36;100.00;100633.03;4997657;28;20091;-65
2023/08/25 00:58:43;;;;;;;9.75;2.70;;;;;;;18.37;100.00;100639.91;4966012;28;20046;-65
2023/08/25 01:01:12;;;;;;;12.10;2.60;;;;;;;18.41;100.00;100648.16;4999137;28;20133;-65
2023/08/25 01:03:39;;;;;;;5.00;2.10;;;;;;;18.36;100.00;100648.78;5003270;28;20041;-65
2023/08/25 01:06:08;;;;;;;10.80;2.70;;;;;;;18.36;100.00;100653.22;4984406;28;20073;-65
2023/08/25 01:08:34;;;;;;;9.15;2.10;;;;;;;18.35;100.00;100647.19;4981978;28;20193;-65
2023/08/25 01:11:20;;;;;;;11.52;2.03;;;;;;;18.34;100.00;100648.19;4967376;28;20039;-65
2023/08/25 01:14:40;;;;;;;10.82;2.60;;;;;;;18.35;100.00;100639.31;4988668;28;20093;-65
2023/08/25 01:17:31;;;;;;;11.85;3.50;;;;;;;18.35;100.00;100641.94;4905999;28;20057;-65
2023/08/25 01:20:06;;;;;;;12.40;2.00;;;;;;;18.30;100.00;100644.38;4980144;28;20844;-65
2023/08/25 01:22:50;;;;;;;12.38;2.97;;;;;;;18.27;100.00;100635.13;4947552;28;20031;-65
2023/08/25 01:25:29;;;;;;;6.28;2.00;;;;;;;18.28;100.00;100630.66;4979731;28;20036;-65
2023/08/25 01:27:59;;;;;;;11.98;2.40;;;;;;;18.27;100.00;100629.88;4963061;28;20050;-65
2023/08/25 01:30:26;;;;;;;11.88;2.30;;;;;;;18.27;100.00;100631.66;4962144;28;20066;-65
2023/08/25 01:32:52;;;;;;;10.48;2.65;;;;;;;18.27;100.00;100618.53;4976868;28;20042;-65
2023/08/25 01:35:45;;;;;;;7.75;2.40;;;;;;;18.26;100.00;100622.19;4980368;28;20432;-65
2023/08/25 01:38:30;;;;;;;6.30;2.25;;;;;;;18.24;100.00;100622.41;4979576;28;20394;-65
2023/08/25 01:41:09;;;;;;;7.10;2.30;;;;;;;18.24;100.00;100624.22;4956282;28;20061;-65
2023/08/25 01:43:38;;;;;;;6.90;2.30;;;;;;;18.21;100.00;100622.03;4959616;28;20026;-65
2023/08/25 01:46:03;;;;;;;8.85;2.50;;;;;;;18.17;100.00;100624.25;4977602;28;20457;-65
2023/08/25 01:48:33;;;;;;;7.97;2.05;;;;;;;18.16;100.00;100617.41;4975773;28;20039;-65
2023/08/25 01:50:59;;;;;;;6.10;1.65;;;;;;;18.15;100.00;100622.88;4960246;28;20050;-65
2023/08/25 01:53:25;;;;;;;5.35;2.10;;;;;;;18.14;100.00;100619.44;4978753;28;20042;-65
2023/08/25 01:55:50;;;;;;;10.30;2.42;;;;;;;18.12;100.00;100623.28;4961367;28;20057;-65
2023/08/25 01:58:17;;;;;;;10.27;2.60;;;;;;;18.17;100.00;100607.72;4961980;28;20993;-65
2023/08/25 02:00:42;;;;;;;10.02;2.70;;;;;;;18.13;100.00;100614.41;4976896;28;20096;-65
2023/08/25 02:03:08;;;;;;;10.45;3.60;;;;;;;18.11;100.00;100606.75;4979414;28;20441;-66
2023/08/25 02:05:33;;;;;;;9.35;2.75;;;;;;;18.09;100.00;100611.41;4957522;28;20554;-66
2023/08/25 02:07:59;;;;;;;14.77;2.88;;;;;;;18.08;100.00;100615.03;4962829;28;20038;-66
2023/08/25 02:10:24;;;;;;;9.20;3.17;;;;;;;18.07;100.00;100611.59;4965255;28;20497;-65
2023/08/25 02:12:50;;;;;;;8.45;3.00;;;;;;;18.04;100.00;100600.72;4956129;28;20045;-65
2023/08/25 02:15:15;;;;;;;11.75;2.50;;;;;;;18.04;100.00;100608.59;5000838;28;20075;-65
2023/08/25 02:17:41;;;;;;;11.07;2.83;;;;;;;18.02;100.00;100608.78;5000561;28;20504;-65
2023/08/25 02:20:07;;;;;;;9.38;2.60;;;;;;;17.99;100.00;100590.03;5000398;28;20029;-65
2023/08/25 02:22:34;;;;;;;8.23;2.35;;;;;;;17.98;100.00;100589.25;5000662;28;20140;-65
2023/08/25 02:24:59;;;;;;;11.70;2.75;;;;;;;17.96;100.00;100588.66;5003018;28;20538;-65
2023/08/25 02:27:25;;;;;;;12.20;2.70;;;;;;;17.95;100.00;100587.06;5000959;28;20041;-65
2023/08/25 02:29:52;;;;;;;6.63;2.05;;;;;;;17.94;100.00;100585.44;5018667;28;20029;-66
2023/08/25 02:32:18;;;;;;;9.43;2.03;;;;;;;17.94;100.00;100580.19;4999691;28;20567;-65
2023/08/25 02:34:43;;;;;;;9.40;1.90;;;;;;;17.95;100.00;100575.75;5001258;28;20159;-65
2023/08/25 02:37:08;;;;;;;5.38;1.98;;;;;;;17.92;100.00;100570.94;5000792;28;20487;-65
2023/08/25 02:39:34;;;;;;;7.80;2.60;;;;;;;17.83;100.00;100565.09;5006008;28;20029;-65
2023/08/25 02:41:59;;;;;;;8.75;1.98;;;;;;;17.77;100.00;100556.25;5000673;28;20045;-65
2023/08/25 02:44:25;;;;;;;6.00;2.50;;;;;;;17.74;100.00;100553.22;5003309;28;20037;-65
2023/08/25 02:46:50;;;;;;;5.35;2.10;;;;;;;17.73;100.00;100549.81;5016158;28;20045;-65
2023/08/25 02:49:16;;;;;;;6.47;2.45;;;;;;;17.71;100.00;100549.22;5002159;28;20026;-65
2023/08/25 02:51:41;;;;;;;5.95;2.53;;;;;;;17.71;100.00;100555.25;5000344;28;20053;-66
2023/08/25 02:54:07;;;;;;;7.05;2.75;;;;;;;17.71;100.00;100563.13;5004031;28;20034;-65
2023/08/25 02:56:32;;;;;;;8.30;3.88;;;;;;;17.69;100.00;100565.16;5002359;28;20034;-65
2023/08/25 02:58:58;;;;;;;3.90;2.83;;;;;;;17.67;100.00;100558.53;5002733;28;20033;-65
2023/08/25 03:01:24;;;;;;;7.35;2.65;;;;;;;17.66;100.00;100551.66;5000840;28;20080;-65
2023/08/25 03:03:51;;;;;;;4.80;2.40;;;;;;;17.65;100.00;100545.63;4985984;28;20695;-65
2023/08/25 03:06:19;;;;;;;7.63;2.75;;;;;;;17.64;100.00;100549.25;5001855;28;20124;-65
2023/08/25 03:08:45;;;;;;;7.40;2.75;;;;;;;17.62;100.00;100542.59;4999445;28;20038;-65
2023/08/25 03:11:13;;;;;;;4.82;2.50;;;;;;;17.61;100.00;100549.66;5003915;28;20057;-65
2023/08/25 03:13:39;;;;;;;4.40;2.67;;;;;;;17.60;100.00;100540.19;5017383;28;20040;-65
2023/08/25 03:16:07;;;;;;;6.43;2.45;;;;;;;17.58;100.00;100538.78;4996007;28;20053;-65
2023/08/25 03:18:33;;;;;;;9.70;3.60;;;;;;;17.55;100.00;100526.88;5004050;28;20571;-65
2023/08/25 03:20:59;;;;;;;11.13;2.88;;;;;;;17.52;100.00;100533.38;4999128;28;20045;-65
2023/08/25 03:23:24;;;;;;;5.50;2.97;;;;;;;17.50;100.00;100522.28;4998951;28;20045;-65
2023/08/25 03:25:50;;;;;;;9.23;2.55;;;;;;;17.49;100.00;100520.66;5002193;28;20412;-66
2023/08/25 03:28:16;;;;;;;7.53;2.78;;;;;;;17.50;100.00;100521.50;5001484;28;20029;-65
2023/08/25 03:30:43;;;;;;;6.32;3.38;;;;;;;17.45;100.00;100524.72;5002176;28;20391;-65
2023/08/25 03:33:08;;;;;;;8.27;3.08;;;;;;;17.42;100.00;100530.41;5017696;28;20057;-67
2023/08/25 03:35:35;;;;;;;8.57;3.17;;;;;;;17.36;100.00;100525.97;4990263;28;20107;-66
2023/08/25 03:38:01;;;;;;;8.10;3.58;;;;;;;17.31;100.00;100537.06;5002684;28;20057;-65
2023/08/25 03:40:27;;;;;;;8.27;3.20;;;;;;;17.27;100.00;100533.25;5002223;28;21916;-66
2023/08/25 03:42:53;;;;;;;9.00;2.90;;;;;;;17.26;100.00;100526.41;4990823;28;20034;-65
2023/08/25 03:45:18;;;;;;;7.57;3.00;;;;;;;17.27;100.00;100528.03;5022020;28;20479;-65
2023/08/25 03:47:44;;;;;;;9.23;3.28;;;;;;;17.27;100.00;100514.09;5004908;28;20051;-65
2023/08/25 03:50:10;;;;;;;7.78;3.22;;;;;;;17.25;100.00;100522.19;5006337;28;20032;-65
2023/08/25 03:52:36;;;;;;;5.30;3.17;;;;;;;17.24;100.00;100531.03;5005877;28;20548;-65
2023/08/25 03:55:02;;;;;;;9.75;3.70;;;;;;;17.24;100.00;100530.25;5020367;28;20491;-65
2023/08/25 03:57:28;;;;;;;5.80;2.92;;;;;;;17.24;100.00;100538.91;5021395;28;20045;-65
2023/08/25 03:59:53;;;;;;;5.80;3.25;;;;;;;17.25;100.00;100542.31;4987907;28;20041;-65
2023/08/25 04:02:19;;;;;;;8.60;3.20;;;;;;;17.24;100.00;100533.66;4998467;28;20041;-65
2023/08/25 04:04:46;;;;;;;7.45;4.15;;;;;;;17.24;100.00;100528.44;4991978;28;20071;-65
2023/08/25 04:07:13;;;;;;;8.43;3.72;;;;;;;17.24;100.00;100527.63;5003752;28;20120;-65
2023/08/25 04:09:39;;;;;;;8.40;3.75;;;;;;;17.21;100.00;100530.66;5025281;28;20026;-65
2023/08/25 04:12:05;;;;;;;9.00;4.07;;;;;;;17.19;100.00;100533.47;5024044;28;20037;-65
2023/08/25 04:14:30;;;;;;;7.85;4.05;;;;;;;17.18;100.00;100534.50;5015624;28;20120;-65
2023/08/25 04:16:57;;;;;;;8.20;4.35;;;;;;;17.18;100.00;100528.44;5003823;28;20033;-65
2023/08/25 04:19:22;;;;;;;6.80;4.32;;;;;;;17.16;100.00;100526.03;4988439;28;20029;-66
2023/08/25 04:21:48;;;;;;;10.40;4.47;;;;;;;17.11;100.00;100529.25;4985138;28;20088;-65
2023/08/25 04:24:16;;;;;;;8.52;4.10;;;;;;;17.10;100.00;100532.06;5003217;28;20637;-65
2023/08/25 04:26:42;;;;;;;8.50;3.45;;;;;;;17.10;100.00;100534.69;5004303;28;20048;-65
2023/08/25 04:29:09;;;;;;;6.00;3.65;;;;;;;17.09;100.00;100533.91;5005416;28;20029;-65
2023/08/25 04:31:37;;;;;;;10.57;4.40;;;;;;;17.09;100.00;100533.91;5004358;28;20507;-66
2023/08/25 04:34:05;;;;;;;5.85;4.32;;;;;;;17.10;100.00;100526.84;4990999;28;20029;-65
2023/08/25 04:36:34;;;;;;;11.82;4.38;;;;;;;17.09;100.00;100526.03;5003073;28;20113;-65
2023/08/25 04:38:59;;;;;;;8.52;3.63;;;;;;;17.07;100.00;100529.88;5000806;28;20029;-65
2023/08/25 04:41:25;;;;;;;8.85;4.40;;;;;;;17.06;100.00;100525.66;4986603;28;20041;-65
2023/08/25 04:43:50;;;;;;;7.07;4.47;;;;;;;17.08;100.00;100528.88;4987058;28;20530;-65
2023/08/25 04:46:16;;;;;;;8.48;4.30;;;;;;;17.08;100.00;100523.63;5005996;28;20042;-65
2023/08/25 04:48:45;;;;;;;6.22;3.88;;;;;;;17.07;100.00;100517.59;4987912;28;20029;-65
2023/08/25 04:51:15;;;;;;;9.43;4.00;;;;;;;17.06;100.00;100513.34;5000119;28;20125;-66
2023/08/25 04:53:41;;;;;;;6.93;4.25;;;;;;;17.02;100.00;100509.53;5006027;28;20060;-65
2023/08/25 04:56:06;;;;;;;6.53;3.22;;;;;;;17.02;100.00;100508.75;4984843;28;21238;-66
2023/08/25 04:58:32;;;;;;;10.10;4.45;;;;;;;16.99;100.00;100507.34;5003942;28;20033;-65
2023/08/25 05:00:58;;;;;;;9.10;3.53;;;;;;;16.99;100.00;100506.53;5018473;28;21157;-65
2023/08/25 05:03:24;;;;;;;5.82;3.67;;;;;;;16.97;100.00;100506.75;5005445;28;20095;-65
2023/08/25 05:05:49;;;;;;;9.13;5.45;;;;;;;16.97;100.00;100506.75;4988890;28;20522;-65
2023/08/25 05:08:16;;;;;;;8.90;3.70;;;;;;;16.93;100.00;100503.72;4992108;28;20473;-65
2023/08/25 05:10:41;;;;;;;7.25;4.22;;;;;;;16.91;100.00;100507.53;4988583;28;20052;-66
2023/08/25 05:13:07;;;;;;;5.97;3.75;;;;;;;16.90;100.00;100511.19;4989059;28;20042;-65
2023/08/25 05:15:34;;;;;;;7.85;3.83;;;;;;;16.92;100.00;100524.88;5010388;28;20041;-66
2023/08/25 05:18:01;;;;;;;10.50;3.97;;;;;;;16.95;100.00;100521.84;5001979;28;20399;-65
2023/08/25 05:20:27;;;;;;;6.45;4.28;;;;;;;16.99;100.00;100524.84;4991224;28;20145;-65
2023/08/25 05:22:53;;;;;;;8.07;4.68;;;;;;;17.04;100.00;100527.66;5003048;28;21221;-65
2023/08/25 05:25:21;;;;;;;10.05;4.82;;;;;;;17.08;100.00;100528.88;4989148;28;20098;-65
2023/08/25 05:27:47;;;;;;;11.00;4.13;;;;;;;17.13;100.00;100511.53;5013651;28;20045;-65
2023/08/25 05:30:13;;;;;;;8.10;4.22;;;;;;;17.17;100.00;100514.53;5002380;28;20116;-65
2023/08/25 05:32:39;;;;;;;7.50;4.50;;;;;;;17.19;100.00;100502.03;5001715;28;20575;-65
2023/08/25 05:35:23;;;;;;;6.65;3.95;;;;;;;17.22;100.00;100504.25;5008842;28;20064;-65
2023/08/25 05:37:49;;;;;;;9.60;5.07;;;;;;;17.25;100.00;100490.75;5002597;28;21933;-65
2023/08/25 05:40:15;;;;;;;10.57;5.30;;;;;;;17.30;100.00;100485.66;4986866;28;20056;-65
2023/08/25 05:42:42;;;;;;;7.70;4.43;;;;;;;17.35;100.00;100492.91;4999241;28;20045;-65
2023/08/25 05:45:08;;;;;;;15.60;6.93;;;;;;;17.38;100.00;100494.31;5003718;28;20493;-65
2023/08/25 05:47:33;;;;;;;13.30;8.43;;;;;;;17.49;100.00;100486.59;5003242;28;20037;-65
2023/08/25 05:49:59;;;;;;;13.73;7.88;;;;;;;17.61;100.00;100492.00;5003716;28;20029;-65
2023/08/25 05:52:24;;;;;;;14.85;7.60;;;;;;;17.58;100.00;100491.59;5000973;28;20025;-65
2023/08/25 05:54:50;;;;;;;10.75;6.88;;;;;;;17.57;100.00;100490.00;5000571;28;20033;-67
2023/08/25 05:57:15;;;;;;;17.73;8.32;;;;;;;17.69;100.00;100481.25;4988201;28;20045;-65
2023/08/25 05:59:41;;;;;;;18.83;9.38;;;;;;;17.81;100.00;100485.81;5022160;28;20044;-65
2023/08/25 06:02:06;;;;;;;15.60;8.10;;;;;;;17.84;100.00;100482.78;5000174;28;20046;-65
2023/08/25 06:04:32;;;;;;;13.48;7.28;;;;;;;17.83;100.00;100460.19;5003127;28;20064;-65
2023/08/25 06:06:57;;;;;;;13.52;7.63;;;;;;;17.93;100.00;100457.13;5017728;28;20033;-65
2023/08/25 06:09:23;;;;;;;11.02;7.40;;;;;;;18.01;100.00;100459.50;5019808;28;20040;-66
2023/08/25 06:11:49;;;;;;;15.05;7.55;;;;;;;18.03;100.00;100473.22;5021771;28;20846;-65
2023/08/25 06:14:15;;;;;;;11.40;6.75;;;;;;;18.06;100.00;100467.53;5002402;28;20033;-65
2023/08/25 06:16:42;;;;;;;10.57;6.88;;;;;;;18.12;100.00;100471.13;5021722;28;20552;-65
2023/08/25 06:19:07;;;;;;;12.18;6.80;;;;;;;18.24;100.00;100474.66;5017685;28;20534;-65
2023/08/25 06:21:33;;;;;;;12.18;7.15;;;;;;;18.32;100.00;100476.22;5020241;28;20060;-65
2023/08/25 06:23:58;;;;;;;14.60;7.80;;;;;;;18.45;100.00;100462.97;5000458;28;20116;-65
2023/08/25 06:26:24;;;;;;;11.93;5.97;;;;;;;18.52;100.00;100465.56;5019132;28;20033;-66
2023/08/25 06:28:52;;;;;;;13.13;5.90;;;;;;;18.60;100.00;100481.00;5018149;28;20728;-66
2023/08/25 06:31:18;;;;;;;12.23;6.20;;;;;;;18.56;100.00;100487.72;5016451;28;20042;-66
2023/08/25 06:33:44;;;;;;;12.90;6.05;;;;;;;18.47;100.00;100493.22;5020176;28;20040;-65
2023/08/25 06:36:10;;;;;;;16.60;7.72;;;;;;;18.51;100.00;100495.44;5019972;28;20427;-66
2023/08/25 06:38:35;;;;;;;12.48;6.38;;;;;;;18.46;100.00;100470.63;5021706;28;20038;-67
2023/08/25 06:41:01;;;;;;;6.93;4.38;;;;;;;18.38;100.00;100470.09;5003172;28;20036;-66
2023/08/25 06:43:26;;;;;;;8.38;4.82;;;;;;;18.34;100.00;100464.47;5003264;28;20033;-66
2023/08/25 06:45:52;;;;;;;13.55;5.47;;;;;;;18.38;100.00;100462.22;5016305;28;20045;-66
2023/08/25 06:48:17;;;;;;;11.13;4.80;;;;;;;18.33;100.00;100473.38;5021188;28;20029;-66
2023/08/25 06:50:43;;;;;;;8.95;5.30;;;;;;;18.34;100.00;100490.72;4997813;28;20447;-66
2023/08/25 06:53:08;;;;;;;11.73;5.72;;;;;;;18.36;100.00;100469.50;5013709;28;20038;-66
2023/08/25 06:55:34;;;;;;;15.95;5.75;;;;;;;18.44;100.00;100474.47;5018599;28;20037;-66
2023/08/25 06:58:00;;;;;;;22.52;7.63;;;;;;;18.40;100.00;100473.31;5000369;28;20803;-66
2023/08/25 07:00:26;;;;;;;17.58;6.22;;;;;;;18.34;100.00;100493.34;5023336;28;20124;-67
2023/08/25 07:02:51;;;;;;;10.73;5.72;;;;;;;18.33;100.00;100494.38;5002104;28;20041;-67
2023/08/25 07:05:18;;;;;;;17.60;7.13;;;;;;;18.28;100.00;100538.81;5018475;28;20037;-67
2023/08/25 07:07:44;;;;;;;11.50;6.50;;;;;;;18.30;100.00;100560.41;5006721;28;20507;-66
2023/08/25 07:10:11;;;;;;;11.63;5.90;;;;;;;18.26;100.00;100582.84;5005177;28;20063;-66
2023/08/25 07:12:37;;;;;;;12.20;5.75;;;;;;;18.22;100.00;100564.09;5005010;28;20044;-66
2023/08/25 07:15:02;;;;;;;13.05;6.10;;;;;;;18.23;100.00;100560.47;5026786;28;20037;-66
2023/08/25 07:17:29;;;;;;;11.95;5.20;;;;;;;18.15;100.00;100563.31;5001164;28;20037;-66
2023/08/25 07:19:54;;;;;;;10.55;5.40;;;;;;;18.11;100.00;100535.09;5023948;28;20041;-67
2023/08/25 07:22:20;;;;;;;19.05;6.28;;;;;;;18.18;100.00;100493.91;5019418;28;20044;-67
2023/08/25 07:24:46;;;;;;;16.13;6.20;;;;;;;18.14;100.00;100477.78;5007882;28;20030;-66
2023/08/25 07:27:11;;;;;;;17.42;5.38;;;;;;;18.07;100.00;100498.78;5022925;28;20029;-66
2023/08/25 07:29:37;;;;;;;11.95;4.93;;;;;;;18.02;100.00;100524.06;5024601;28;20665;-66
2023/08/25 07:32:03;;;;;;;11.80;5.50;;;;;;;18.01;100.00;100535.59;5002809;28;20044;-67
2023/08/25 07:34:29;;;;;;;14.05;5.90;;;;;;;18.01;100.00;100578.34;5004999;28;20029;-67
2023/08/25 07:36:55;;;;;;;9.30;5.35;;;;;;;17.96;100.00;100603.59;5025010;28;20481;-66
2023/08/25 07:39:20;;;;;;;13.43;5.68;;;;;;;17.96;100.00;100600.97;5007049;28;20044;-67
2023/08/25 07:41:46;;;;;;;16.27;6.40;;;;;;;17.99;100.00;100572.50;5022689;28;20321;-67
2023/08/25 07:44:11;;;;;;;18.90;6.32;;;;;;;18.00;100.00;100568.84;5004292;28;20039;-66
2023/08/25 07:46:38;;;;;;;18.10;6.55;;;;;;;18.16;100.00;100554.44;5005921;28;20127;-66
2023/08/25 07:49:07;;;;;;;11.02;6.88;;;;;;;18.06;100.00;100538.34;5021189;28;20044;-66
2023/08/25 07:51:32;;;;;;;13.50;5.93;;;;;;;17.99;100.00;100500.84;5006623;28;20180;-66
2023/08/25 07:53:58;;;;;;;20.17;6.88;;;;;;;17.90;100.00;100459.16;5022873;28;20064;-66
2023/08/25 07:56:23;;;;;;;11.45;6.00;;;;;;;17.87;100.00;100462.19;5005384;28;20049;-67
2023/08/25 07:58:49;;;;;;;12.95;5.50;;;;;;;17.83;100.00;100466.22;5021435;28;20033;-67
2023/08/25 08:01:14;;;;;;;15.15;4.90;;;;;;;17.85;100.00;100466.06;5021301;28;20086;-66
2023/08/25 08:03:40;;;;;;;9.93;5.50;;;;;;;17.80;100.00;100482.41;5003030;28;20076;-66
2023/08/25 08:06:05;;;;;;;13.05;4.65;;;;;;;17.83;100.00;100537.03;5003751;28;20042;-66
2023/08/25 08:08:31;;;;;;;12.68;5.60;;;;;;;17.83;100.00;100550.16;5024556;28;20040;-66
2023/08/25 08:10:56;;;;;;;16.50;6.50;;;;;;;17.88;100.00;100594.94;4988081;28;20053;-67
2023/08/25 08:13:22;;;;;;;15.40;6.50;;;;;;;17.78;100.00;100627.84;5007445;28;20034;-67
2023/08/25 08:15:47;;;;;;;15.23;5.32;;;;;;;17.80;100.00;100620.56;5018492;28;20112;-67
2023/08/25 08:18:13;;;;;;;16.85;4.90;;;;;;;17.77;100.00;100608.69;5001025;28;20026;-67
2023/08/25 08:20:38;;;;;;;8.60;4.28;;;;;;;17.85;100.00;100561.25;4991527;28;20030;-68
2023/08/25 08:23:04;;;;;;;8.65;3.60;;;;;;;17.80;100.00;100573.38;5023828;28;20044;-67
2023/08/25 08:25:30;;;;;;;9.95;3.50;;;;;;;17.73;100.00;100607.50;5002254;28;20439;-67
2023/08/25 08:27:56;;;;;;;8.82;3.03;;;;;;;17.75;100.00;100604.69;5021220;28;20045;-67
2023/08/25 08:30:21;;;;;;;7.47;3.20;;;;;;;17.71;100.00;100578.84;5019796;28;20483;-67
2023/08/25 08:32:47;;;;;;;7.53;3.08;;;;;;;17.78;100.00;100554.41;5018552;28;20045;-67
2023/08/25 08:35:12;;;;;;;5.25;2.97;;;;;;;17.89;100.00;100530.19;5005656;28;20030;-66
2023/08/25 08:37:41;;;;;;;8.07;3.47;;;;;;;17.98;100.00;100515.81;5022655;28;20052;-67
2023/08/25 08:40:10;;;;;;;8.25;3.20;;;;;;;17.94;100.00;100500.72;5018703;28;20038;-66
2023/08/25 08:42:37;;;;;;;10.18;3.33;;;;;;;18.02;100.00;100516.97;4987371;28;20042;-66
2023/08/25 08:45:09;;;;;;;9.68;4.82;;;;;;;18.08;100.00;100558.13;5021957;28;20043;-66
2023/08/25 08:47:35;;;;;;;10.90;3.88;;;;;;;18.04;100.00;100570.03;5020052;28;20041;-66
2023/08/25 08:50:02;;;;;;;8.77;4.05;;;;;;;18.05;100.00;100576.91;5023309;28;20499;-67
2023/08/25 08:52:29;;;;;;;7.82;3.53;;;;;;;18.03;100.00;100572.91;5020044;28;20053;-67
2023/08/25 08:54:57;;;;;;;8.63;3.60;;;;;;;18.00;100.00;100573.31;5024693;28;20462;-68
2023/08/25 08:57:24;;;;;;;13.48;3.40;;;;;;;18.06;100.00;100619.69;5002461;28;20033;-68
2023/08/25 09:03:38;;;;;;;13.80;4.32;;;;;;;18.03;100.00;100592.06;5027423;28;20234;-68
2023/08/25 09:06:04;;;;;;;14.13;4.22;;;;;;;17.99;100.00;100548.91;5022923;28;20504;-68
2023/08/25 09:08:35;;;;;;;11.95;3.17;;;;;;;17.89;100.00;100549.38;5023820;28;20049;-67
2023/08/25 09:11:04;;;;;;;9.80;4.00;;;;;;;17.89;100.00;100556.41;5021291;28;20048;-67
2023/08/25 09:13:33;;;;;;;10.77;3.40;;;;;;;17.84;100.00;100541.31;5021751;28;20059;-67
2023/08/25 09:15:59;;;;;;;9.10;3.30;;;;;;;17.79;100.00;100559.47;5019019;28;20058;-66
2023/08/25 09:18:32;;;;;;;6.85;2.70;;;;;;;17.80;100.00;100544.53;4999336;28;20037;-67
2023/08/25 09:20:59;;;;;;;;;;;;;;;17.79;100.00;100541.09;5018093;28;20124;-67
2023/08/25 09:23:24;;;;;;;8.55;2.53;;;;;;;17.83;100.00;100558.03;5021362;28;19913;-66
2023/08/25 09:25:50;;;;;;;6.53;2.75;;;;;;;17.86;100.00;100580.44;5020218;28;20045;-66
2023/08/25 09:28:16;;;;;;;6.55;2.78;;;;;;;17.86;100.00;100591.72;5021396;28;20033;-66
2023/08/25 09:30:44;;;;;;;9.00;3.10;;;;;;;17.84;100.00;100577.19;5019679;28;20495;-66
2023/08/25 09:33:13;;;;;;;7.78;2.88;;;;;;;17.84;100.00;100582.44;5005643;28;20117;-66
2023/08/25 09:35:40;;;;;;;14.02;2.85;;;;;;;17.83;100.00;100571.13;5018542;28;20042;-68
2023/08/25 09:38:05;;;;;;;4.13;2.22;;;;;;;17.84;100.00;100571.97;5003976;28;20049;-66
2023/08/25 09:40:31;;;;;;;7.97;3.05;;;;;;;17.88;100.00;100575.78;5020662;28;20033;-67
2023/08/25 09:43:00;;;;;;;5.65;2.92;;;;;;;17.90;100.00;100623.59;5021069;28;20048;-67
2023/08/25 09:45:28;;;;;;;11.52;2.78;;;;;;;17.97;100.00;100668.16;5021634;28;20365;-67
2023/08/25 09:48:04;;;;;;;11.73;2.90;;;;;;;17.91;100.00;100677.66;5022066;28;20041;-68
2023/08/25 09:50:35;;;;;;;7.25;3.38;;;;;;;17.99;100.00;100672.19;5006510;28;20128;-70
2023/08/25 09:53:02;;;;;;;10.63;3.10;;;;;;;17.98;100.00;100667.94;5020819;28;20030;-68
2023/08/25 09:55:28;;;;;;;9.63;3.58;;;;;;;17.90;100.00;100589.50;5002765;28;20044;-68
2023/08/25 09:57:53;;;;;;;14.63;4.65;;;;;;;17.80;100.00;100545.34;5019699;28;20033;-67
2023/08/25 10:00:19;;;;;;;13.38;3.95;;;;;;;17.81;100.00;100514.69;5003440;28;20389;-68
2023/08/25 10:02:45;;;;;;;12.73;3.45;;;;;;;17.77;100.00;100544.97;5000605;28;20150;-66
2023/08/25 10:05:12;;;;;;;12.98;4.47;;;;;;;17.64;100.00;100525.63;5021101;28;20045;-66
2023/08/25 10:07:40;;;;;;;13.35;4.22;;;;;;;17.59;100.00;100522.03;4986693;28;20041;-67
2023/08/25 10:10:06;;;;;;;11.07;3.40;;;;;;;17.59;100.00;100528.06;5002324;28;20041;-67
2023/08/25 10:12:34;;;;;;;11.93;3.03;;;;;;;17.54;100.00;100576.91;5021245;28;20048;-67
2023/08/25 10:15:03;;;;;;;14.68;3.45;;;;;;;17.61;100.00;100609.13;5003389;28;20041;-67
2023/08/25 10:17:30;;;;;;;18.95;4.05;;;;;;;17.54;100.00;100605.72;5002421;28;20037;-66
2023/08/25 10:20:01;;;;;;;11.35;4.20;;;;;;;17.56;100.00;100606.34;5001536;28;20476;-66
2023/08/25 10:22:26;;;;;;;14.57;4.45;;;;;;;17.47;100.00;100592.66;4997975;28;20045;-67
2023/08/25 10:24:59;;;;;;;20.27;7.80;;;;;;;17.56;100.00;100578.31;5002725;28;20022;-66
2023/08/25 10:27:25;;;;;;;8.73;3.58;;;;;;;17.58;100.00;100576.28;5014425;28;20064;-66
2023/08/25 10:29:51;;;;;;;10.15;4.00;;;;;;;17.50;100.00;100569.47;5022419;28;20117;-66
2023/08/25 10:32:17;;;;;;;7.85;3.17;;;;;;;17.58;100.00;100576.28;5020230;28;20137;-67
2023/08/25 10:34:44;;;;;;;8.75;3.08;;;;;;;17.65;100.00;100563.97;5022628;28;20045;-67
2023/08/25 10:37:22;;;;;;;9.20;2.25;;;;;;;17.62;100.00;100548.66;5002607;28;20060;-67
2023/08/25 10:39:52;;;;;;;7.93;2.30;;;;;;;17.68;100.00;100532.06;5025739;28;20492;-67
2023/08/25 10:42:31;;;;;;;7.03;2.30;;;;;;;17.70;100.00;100518.75;5020280;28;20057;-67
2023/08/25 10:45:03;;;;;;;6.07;2.45;;;;;;;17.67;100.00;100517.38;5017688;28;20044;-66
2023/08/25 10:47:28;;;;;;;5.50;2.33;;;;;;;17.67;100.00;100500.84;5018173;28;20033;-67
2023/08/25 10:49:55;;;;;;;5.22;2.42;;;;;;;17.76;100.00;100509.25;5000290;28;20486;-66
2023/08/25 10:52:22;;;;;;;6.35;2.90;;;;;;;17.90;100.00;100539.66;4996782;28;20046;-67
2023/08/25 10:54:51;;;;;;;6.75;2.97;;;;;;;17.87;100.00;100551.38;5021864;28;20056;-66
2023/08/25 10:57:21;;;;;;;8.45;3.65;;;;;;;17.94;100.00;100566.28;5013771;28;20539;-66
2023/08/25 10:59:52;;;;;;;10.07;4.20;;;;;;;18.00;100.00;100574.09;5019622;28;20040;-66
2023/08/25 11:02:37;;;;;;;12.82;4.38;;;;;;;18.05;100.00;100574.28;4983200;28;20036;-66
2023/08/25 11:05:34;;;;;;;10.20;4.60;;;;;;;18.08;100.00;100581.75;5022186;28;20053;-66
2023/08/25 11:08:04;;;;;;;15.05;4.85;;;;;;;18.15;100.00;100605.31;5002776;28;20037;-66
2023/08/25 11:10:35;;;;;;;6.80;4.68;;;;;;;18.22;100.00;100597.41;5018696;28;20041;-66
2023/08/25 11:13:07;;;;;;;9.73;5.10;;;;;;;18.27;100.00;100629.03;5000763;28;20731;-66
2023/08/25 11:15:37;;;;;;;11.35;4.90;;;;;;;18.31;100.00;100638.13;5019211;28;20032;-66
2023/08/25 11:18:03;;;;;;;10.48;4.80;;;;;;;18.38;100.00;100623.13;5018808;28;20034;-66